createdAt,value
2023-02-13T00:00:25.329Z,90.18
2023-02-13T00:00:58.015Z,90.12
2023-02-13T00:01:30.214Z,90.01
2023-02-13T00:02:02.699Z,89.91
2023-02-13T00:02:35.150Z,89.70
2023-02-13T00:03:07.673Z,89.70
2023-02-13T00:03:40.214Z,89.81
2023-02-13T00:04:12.561Z,89.91
2023-02-13T00:04:44.999Z,89.91
2023-02-13T00:05:17.420Z,89.91
2023-02-13T00:05:49.894Z,89.91
2023-02-13T00:06:22.301Z,89.91
2023-02-13T00:06:54.753Z,90.01
2023-02-13T00:07:27.188Z,90.22
2023-02-13T00:07:59.691Z,90.48
2023-02-13T00:08:32.100Z,90.80
2023-02-13T00:09:06.354Z,90.89
2023-02-13T00:09:37.051Z,91.10
2023-02-13T00:10:09.510Z,91.00
2023-02-13T00:10:41.928Z,91.10
2023-02-13T00:11:14.384Z,91.20
2023-02-13T00:11:46.854Z,90.89
2023-02-13T00:12:19.338Z,90.59
2023-02-13T00:12:51.785Z,90.18
2023-02-13T00:13:24.215Z,90.38
2023-02-13T00:13:56.661Z,90.28
2023-02-13T00:14:29.144Z,90.38
2023-02-13T00:15:01.601Z,90.08
2023-02-13T00:15:34.083Z,89.87
2023-02-13T00:16:06.598Z,90.48
2023-02-13T00:16:38.977Z,91.31
2023-02-13T00:17:11.496Z,90.59
2023-02-13T00:17:43.924Z,90.08
2023-02-13T00:18:16.507Z,89.87
2023-02-13T00:18:50.391Z,89.81
2023-02-13T00:19:22.870Z,89.81
2023-02-13T00:19:56.167Z,89.76
2023-02-13T00:20:29.092Z,89.91
2023-02-13T00:21:01.610Z,90.32
2023-02-13T00:21:34.068Z,89.91
2023-02-13T00:22:06.566Z,89.81
2023-02-13T00:22:39.563Z,89.91
2023-02-13T00:23:12.137Z,89.91
2023-02-13T00:23:44.688Z,89.91
2023-02-13T00:24:17.120Z,90.01
2023-02-13T00:24:49.650Z,90.22
2023-02-13T00:25:22.368Z,90.32
2023-02-13T00:25:54.822Z,90.22
2023-02-13T00:26:27.263Z,90.28
2023-02-13T00:26:59.723Z,90.22
2023-02-13T00:27:32.163Z,89.97
2023-02-13T00:28:04.733Z,89.91
2023-02-13T00:28:37.248Z,89.91
2023-02-13T00:29:10.010Z,89.97
2023-02-13T00:29:43.091Z,89.81
2023-02-13T00:30:15.883Z,89.76
2023-02-13T00:30:48.571Z,89.87
2023-02-13T00:31:22.252Z,90.01
2023-02-13T00:31:55.761Z,90.08
2023-02-13T00:32:28.063Z,90.18
2023-02-13T00:33:00.493Z,90.08
2023-02-13T00:33:32.987Z,90.08
2023-02-13T00:34:05.410Z,89.97
2023-02-13T00:34:37.870Z,90.01
2023-02-13T00:35:10.374Z,90.18
2023-02-13T00:35:42.824Z,90.28
2023-02-13T00:36:15.297Z,90.28
2023-02-13T00:36:49.210Z,90.48
2023-02-13T00:37:21.812Z,90.48
2023-02-13T00:37:54.288Z,90.69
2023-02-13T00:38:26.842Z,90.69
2023-02-13T00:38:59.817Z,90.69
2023-02-13T00:39:32.521Z,90.28
2023-02-13T00:40:04.891Z,90.38
2023-02-13T00:40:37.536Z,90.38
2023-02-13T00:41:10.136Z,90.53
2023-02-13T00:41:42.594Z,90.69
2023-02-13T00:42:15.038Z,90.69
2023-02-13T00:42:47.547Z,90.38
2023-02-13T00:43:20.440Z,90.28
2023-02-13T00:43:52.669Z,90.08
2023-02-13T00:44:26.302Z,90.18
2023-02-13T00:44:59.778Z,90.08
2023-02-13T00:45:32.321Z,90.01
2023-02-13T00:46:04.802Z,90.32
2023-02-13T00:46:37.328Z,90.38
2023-02-13T00:47:09.771Z,90.48
2023-02-13T00:47:42.427Z,90.48
2023-02-13T00:48:16.756Z,90.38
2023-02-13T00:48:49.634Z,90.18
2023-02-13T00:49:23.756Z,90.18
2023-02-13T00:49:58.626Z,90.18
2023-02-13T00:50:31.466Z,90.69
2023-02-13T00:51:04.023Z,90.94
2023-02-13T00:51:38.699Z,90.94
2023-02-13T00:52:11.430Z,91.20
2023-02-13T00:52:43.887Z,91.35
2023-02-13T00:53:16.338Z,91.14
2023-02-13T00:53:48.860Z,91.31
2023-02-13T00:54:21.495Z,91.45
2023-02-13T00:54:54.321Z,91.35
2023-02-13T00:55:26.886Z,90.53
2023-02-13T00:55:59.332Z,90.42
2023-02-13T00:56:32.081Z,90.42
2023-02-13T00:57:04.529Z,90.42
2023-02-13T00:57:37.227Z,90.42
2023-02-13T00:58:09.878Z,90.42
2023-02-13T00:58:43.753Z,90.73
2023-02-13T00:59:16.125Z,90.83
2023-02-13T00:59:49.708Z,90.94
2023-02-13T01:00:21.055Z,91.04
2023-02-13T01:00:53.483Z,90.83
2023-02-13T01:01:26.011Z,91.25
2023-02-13T01:01:58.511Z,91.76
2023-02-13T01:02:30.896Z,91.97
2023-02-13T01:03:03.358Z,91.25
2023-02-13T01:03:35.838Z,91.25
2023-02-13T01:04:08.228Z,90.94
2023-02-13T01:04:40.672Z,90.73
2023-02-13T01:05:13.104Z,90.63
2023-02-13T01:05:45.531Z,90.63
2023-02-13T01:06:17.942Z,91.25
2023-02-13T01:06:50.391Z,91.04
2023-02-13T01:07:22.828Z,90.94
2023-02-13T01:07:55.301Z,90.73
2023-02-13T01:08:27.727Z,90.53
2023-02-13T01:09:00.185Z,90.53
2023-02-13T01:09:32.653Z,90.73
2023-02-13T01:10:05.114Z,90.73
2023-02-13T01:10:37.894Z,90.83
2023-02-13T01:11:10.346Z,90.94
2023-02-13T01:11:43.133Z,90.73
2023-02-13T01:12:15.595Z,90.63
2023-02-13T01:12:48.075Z,90.53
2023-02-13T01:13:20.534Z,90.83
2023-02-13T01:13:52.975Z,90.83
2023-02-13T01:14:25.453Z,91.04
2023-02-13T01:14:57.944Z,91.55
2023-02-13T01:15:30.439Z,91.14
2023-02-13T01:16:03.007Z,90.94
2023-02-13T01:16:35.442Z,90.83
2023-02-13T01:17:07.962Z,90.73
2023-02-13T01:17:40.488Z,90.94
2023-02-13T01:18:13.018Z,91.14
2023-02-13T01:18:45.456Z,91.25
2023-02-13T01:19:17.925Z,90.94
2023-02-13T01:19:50.401Z,90.94
2023-02-13T01:20:22.887Z,91.04
2023-02-13T01:20:55.727Z,91.25
2023-02-13T01:21:27.756Z,91.35
2023-02-13T01:22:00.224Z,91.45
2023-02-13T01:22:32.696Z,91.25
2023-02-13T01:23:05.139Z,91.45
2023-02-13T01:23:37.626Z,91.35
2023-02-13T01:24:10.080Z,91.14
2023-02-13T01:24:42.556Z,91.04
2023-02-13T01:25:15.013Z,91.04
2023-02-13T01:25:47.453Z,91.35
2023-02-13T01:26:19.938Z,91.45
2023-02-13T01:26:52.384Z,91.35
2023-02-13T01:27:24.891Z,91.25
2023-02-13T01:27:57.352Z,91.25
2023-02-13T01:28:29.901Z,91.55
2023-02-13T01:29:02.493Z,91.76
2023-02-13T01:29:34.965Z,91.86
2023-02-13T01:30:07.428Z,91.55
2023-02-13T01:30:39.926Z,91.25
2023-02-13T01:31:12.446Z,91.45
2023-02-13T01:31:44.922Z,91.76
2023-02-13T01:32:17.386Z,91.45
2023-02-13T01:32:49.788Z,91.35
2023-02-13T01:33:22.306Z,91.76
2023-02-13T01:33:54.756Z,91.86
2023-02-13T01:34:27.261Z,91.86
2023-02-13T01:34:59.773Z,92.07
2023-02-13T01:35:32.265Z,92.58
2023-02-13T01:36:04.750Z,92.89
2023-02-13T01:36:37.218Z,92.69
2023-02-13T01:37:09.712Z,92.38
2023-02-13T01:37:42.155Z,92.52
2023-02-13T01:38:14.625Z,92.69
2023-02-13T01:38:47.100Z,92.52
2023-02-13T01:39:19.637Z,92.38
2023-02-13T01:39:52.100Z,92.11
2023-02-13T01:40:24.569Z,92.01
2023-02-13T01:40:57.238Z,92.11
2023-02-13T01:41:29.461Z,92.27
2023-02-13T01:42:01.940Z,92.52
2023-02-13T01:42:34.522Z,92.89
2023-02-13T01:43:07.054Z,92.99
2023-02-13T01:43:39.601Z,92.93
2023-02-13T01:44:12.093Z,93.24
2023-02-13T01:44:44.541Z,92.89
2023-02-13T01:45:17.079Z,92.38
2023-02-13T01:45:49.544Z,92.01
2023-02-13T01:46:22.005Z,91.91
2023-02-13T01:46:54.596Z,92.32
2023-02-13T01:47:26.998Z,92.42
2023-02-13T01:47:59.453Z,92.21
2023-02-13T01:48:32.424Z,92.38
2023-02-13T01:49:04.342Z,92.58
2023-02-13T01:49:36.802Z,92.69
2023-02-13T01:50:09.262Z,92.79
2023-02-13T01:50:41.691Z,92.79
2023-02-13T01:51:14.122Z,92.89
2023-02-13T01:51:46.592Z,92.07
2023-02-13T01:52:19.043Z,91.66
2023-02-13T01:52:51.497Z,91.49
2023-02-13T01:53:23.954Z,91.91
2023-02-13T01:53:56.420Z,91.80
2023-02-13T01:54:28.888Z,91.80
2023-02-13T01:55:01.368Z,91.55
2023-02-13T01:55:33.841Z,91.86
2023-02-13T01:56:06.279Z,91.80
2023-02-13T01:56:38.730Z,91.66
2023-02-13T01:57:11.181Z,91.45
2023-02-13T01:57:43.619Z,91.39
2023-02-13T01:58:16.061Z,91.19
2023-02-13T01:58:48.549Z,91.19
2023-02-13T01:59:21.019Z,91.19
2023-02-13T01:59:53.475Z,91.19
2023-02-13T02:00:25.933Z,91.29
2023-02-13T02:00:58.614Z,91.39
2023-02-13T02:01:30.916Z,91.60
2023-02-13T02:02:03.433Z,91.39
2023-02-13T02:02:35.810Z,91.19
2023-02-13T02:03:08.227Z,91.39
2023-02-13T02:03:40.686Z,91.39
2023-02-13T02:04:13.156Z,91.60
2023-02-13T02:04:45.587Z,91.80
2023-02-13T02:05:18.053Z,91.91
2023-02-13T02:05:50.531Z,91.70
2023-02-13T02:06:22.981Z,92.11
2023-02-13T02:06:55.418Z,92.52
2023-02-13T02:07:27.897Z,92.42
2023-02-13T02:08:00.343Z,91.49
2023-02-13T02:08:32.872Z,91.39
2023-02-13T02:09:05.370Z,91.29
2023-02-13T02:09:37.805Z,91.29
2023-02-13T02:10:10.272Z,91.29
2023-02-13T02:10:42.761Z,91.39
2023-02-13T02:11:15.413Z,91.49
2023-02-13T02:11:47.923Z,91.49
2023-02-13T02:12:20.388Z,91.49
2023-02-13T02:12:52.829Z,91.60
2023-02-13T02:13:25.284Z,91.60
2023-02-13T02:13:57.720Z,91.60
2023-02-13T02:14:30.249Z,91.60
2023-02-13T02:15:02.736Z,91.70
2023-02-13T02:15:35.229Z,92.01
2023-02-13T02:16:07.757Z,91.91
2023-02-13T02:16:40.234Z,91.91
2023-02-13T02:17:12.715Z,91.70
2023-02-13T02:17:45.209Z,91.70
2023-02-13T02:18:17.682Z,91.70
2023-02-13T02:18:50.140Z,91.70
2023-02-13T02:19:22.672Z,91.80
2023-02-13T02:19:55.124Z,91.70
2023-02-13T02:20:27.642Z,91.70
2023-02-13T02:21:00.111Z,91.70
2023-02-13T02:21:32.564Z,91.70
2023-02-13T02:22:05.041Z,91.70
2023-02-13T02:22:37.571Z,91.80
2023-02-13T02:23:10.031Z,91.80
2023-02-13T02:23:42.600Z,91.60
2023-02-13T02:24:15.113Z,91.70
2023-02-13T02:24:47.616Z,91.70
2023-02-13T02:25:20.116Z,91.70
2023-02-13T02:25:52.616Z,91.60
2023-02-13T02:26:25.095Z,91.70
2023-02-13T02:26:57.557Z,91.80
2023-02-13T02:27:30.001Z,91.70
2023-02-13T02:28:02.486Z,91.80
2023-02-13T02:28:34.905Z,92.01
2023-02-13T02:29:07.363Z,92.01
2023-02-13T02:29:39.845Z,92.21
2023-02-13T02:30:12.331Z,92.32
2023-02-13T02:30:44.851Z,92.32
2023-02-13T02:31:17.359Z,92.32
2023-02-13T02:31:49.885Z,92.01
2023-02-13T02:32:22.299Z,91.70
2023-02-13T02:32:54.797Z,91.60
2023-02-13T02:33:27.329Z,91.70
2023-02-13T02:34:00.046Z,91.91
2023-02-13T02:34:32.579Z,91.91
2023-02-13T02:35:05.224Z,91.60
2023-02-13T02:35:37.659Z,91.80
2023-02-13T02:36:10.157Z,91.80
2023-02-13T02:36:42.629Z,92.11
2023-02-13T02:37:15.077Z,92.32
2023-02-13T02:37:47.553Z,92.11
2023-02-13T02:38:20.045Z,92.11
2023-02-13T02:38:52.484Z,92.01
2023-02-13T02:39:24.960Z,92.01
2023-02-13T02:39:57.457Z,92.11
2023-02-13T02:40:29.959Z,92.01
2023-02-13T02:41:02.466Z,91.91
2023-02-13T02:41:34.937Z,92.21
2023-02-13T02:42:07.395Z,92.32
2023-02-13T02:42:39.889Z,91.91
2023-02-13T02:43:12.355Z,92.21
2023-02-13T02:43:44.806Z,92.42
2023-02-13T02:44:17.310Z,92.32
2023-02-13T02:44:49.826Z,92.36
2023-02-13T02:45:22.284Z,92.63
2023-02-13T02:45:54.806Z,92.83
2023-02-13T02:46:27.317Z,93.14
2023-02-13T02:46:59.815Z,93.24
2023-02-13T02:47:32.214Z,92.83
2023-02-13T02:48:04.708Z,92.46
2023-02-13T02:48:37.165Z,92.21
2023-02-13T02:49:09.692Z,92.21
2023-02-13T02:49:42.181Z,92.32
2023-02-13T02:50:14.640Z,92.25
2023-02-13T02:50:47.105Z,92.21
2023-02-13T02:51:19.633Z,92.36
2023-02-13T02:51:52.107Z,92.73
2023-02-13T02:52:24.650Z,93.14
2023-02-13T02:52:57.117Z,93.14
2023-02-13T02:53:29.566Z,93.14
2023-02-13T02:54:02.070Z,92.73
2023-02-13T02:54:34.593Z,92.52
2023-02-13T02:55:07.158Z,92.32
2023-02-13T02:55:39.675Z,92.52
2023-02-13T02:56:12.141Z,92.42
2023-02-13T02:56:44.633Z,92.16
2023-02-13T02:57:17.135Z,92.01
2023-02-13T02:57:49.631Z,92.16
2023-02-13T02:58:22.124Z,92.32
2023-02-13T02:58:54.590Z,92.36
2023-02-13T02:59:27.116Z,92.42
2023-02-13T02:59:59.600Z,92.11
2023-02-13T03:00:32.166Z,91.95
2023-02-13T03:01:04.698Z,92.05
2023-02-13T03:01:37.245Z,92.16
2023-02-13T03:02:09.801Z,92.16
2023-02-13T03:02:42.354Z,92.36
2023-02-13T03:03:14.830Z,92.25
2023-02-13T03:03:47.387Z,92.25
2023-02-13T03:04:19.869Z,92.36
2023-02-13T03:04:52.312Z,92.36
2023-02-13T03:05:24.811Z,92.05
2023-02-13T03:05:57.289Z,92.05
2023-02-13T03:06:29.749Z,92.05
2023-02-13T03:07:02.184Z,91.95
2023-02-13T03:07:34.673Z,92.05
2023-02-13T03:08:07.155Z,92.16
2023-02-13T03:08:39.658Z,92.16
2023-02-13T03:09:12.124Z,92.25
2023-02-13T03:09:44.593Z,92.16
2023-02-13T03:10:17.094Z,92.25
2023-02-13T03:10:49.580Z,92.46
2023-02-13T03:11:22.044Z,92.67
2023-02-13T03:11:54.491Z,92.77
2023-02-13T03:12:26.954Z,92.57
2023-02-13T03:12:59.453Z,92.36
2023-02-13T03:13:31.939Z,92.36
2023-02-13T03:14:04.371Z,92.36
2023-02-13T03:14:36.896Z,92.36
2023-02-13T03:15:09.367Z,92.46
2023-02-13T03:15:41.810Z,92.67
2023-02-13T03:16:14.299Z,92.77
2023-02-13T03:16:46.782Z,92.67
2023-02-13T03:17:19.298Z,92.87
2023-02-13T03:17:51.792Z,93.18
2023-02-13T03:18:24.303Z,93.39
2023-02-13T03:18:56.816Z,93.08
2023-02-13T03:19:29.275Z,92.67
2023-02-13T03:20:01.700Z,92.67
2023-02-13T03:20:34.201Z,92.77
2023-02-13T03:21:06.643Z,92.97
2023-02-13T03:21:39.094Z,93.08
2023-02-13T03:22:11.636Z,93.29
2023-02-13T03:22:44.092Z,93.18
2023-02-13T03:23:16.585Z,93.39
2023-02-13T03:23:49.040Z,93.49
2023-02-13T03:24:21.472Z,93.29
2023-02-13T03:24:53.958Z,93.29
2023-02-13T03:25:26.360Z,93.70
2023-02-13T03:25:58.852Z,93.80
2023-02-13T03:26:31.307Z,94.01
2023-02-13T03:27:03.801Z,94.01
2023-02-13T03:27:36.284Z,93.70
2023-02-13T03:28:08.785Z,93.49
2023-02-13T03:28:41.313Z,92.97
2023-02-13T03:29:13.696Z,93.39
2023-02-13T03:29:46.184Z,93.70
2023-02-13T03:30:18.817Z,93.90
2023-02-13T03:30:51.320Z,93.39
2023-02-13T03:31:23.730Z,93.39
2023-02-13T03:31:56.278Z,93.29
2023-02-13T03:32:28.608Z,92.97
2023-02-13T03:33:01.145Z,92.77
2023-02-13T03:33:33.735Z,92.97
2023-02-13T03:34:06.186Z,93.39
2023-02-13T03:34:38.719Z,93.39
2023-02-13T03:35:11.154Z,93.18
2023-02-13T03:35:43.605Z,93.39
2023-02-13T03:36:16.061Z,93.59
2023-02-13T03:36:48.740Z,93.70
2023-02-13T03:37:21.178Z,93.80
2023-02-13T03:37:53.698Z,93.90
2023-02-13T03:38:26.133Z,94.01
2023-02-13T03:38:58.611Z,94.01
2023-02-13T03:39:31.015Z,94.01
2023-02-13T03:40:03.459Z,93.70
2023-02-13T03:40:35.893Z,93.70
2023-02-13T03:41:08.356Z,93.49
2023-02-13T03:41:40.874Z,93.08
2023-02-13T03:42:13.314Z,93.18
2023-02-13T03:42:45.802Z,93.29
2023-02-13T03:43:18.358Z,93.39
2023-02-13T03:43:50.828Z,93.39
2023-02-13T03:44:23.289Z,92.97
2023-02-13T03:44:55.781Z,92.87
2023-02-13T03:45:28.257Z,92.67
2023-02-13T03:46:00.768Z,92.67
2023-02-13T03:46:33.226Z,92.77
2023-02-13T03:47:05.714Z,92.77
2023-02-13T03:47:38.163Z,92.67
2023-02-13T03:48:10.638Z,92.67
2023-02-13T03:48:43.115Z,92.67
2023-02-13T03:49:15.581Z,92.67
2023-02-13T03:49:48.090Z,92.77
2023-02-13T03:50:20.553Z,93.08
2023-02-13T03:50:53.043Z,93.18
2023-02-13T03:51:25.555Z,93.18
2023-02-13T03:51:58.030Z,93.29
2023-02-13T03:52:30.562Z,93.39
2023-02-13T03:53:03.027Z,92.87
2023-02-13T03:53:35.470Z,92.57
2023-02-13T03:54:08.038Z,92.57
2023-02-13T03:54:40.474Z,92.77
2023-02-13T03:55:12.958Z,92.97
2023-02-13T03:55:45.462Z,92.97
2023-02-13T03:56:17.895Z,92.67
2023-02-13T03:56:50.395Z,92.57
2023-02-13T03:57:22.861Z,92.97
2023-02-13T03:57:55.370Z,93.08
2023-02-13T03:58:27.851Z,93.18
2023-02-13T03:59:00.302Z,93.18
2023-02-13T03:59:32.796Z,93.29
2023-02-13T04:00:05.318Z,93.18
2023-02-13T04:00:37.762Z,93.39
2023-02-13T04:01:10.265Z,93.39
2023-02-13T04:01:42.662Z,93.59
2023-02-13T04:02:15.253Z,93.90
2023-02-13T04:02:47.658Z,94.11
2023-02-13T04:03:20.162Z,94.01
2023-02-13T04:03:52.598Z,93.49
2023-02-13T04:04:25.047Z,93.08
2023-02-13T04:04:57.521Z,92.97
2023-02-13T04:05:30.012Z,92.67
2023-02-13T04:06:02.441Z,92.46
2023-02-13T04:06:34.899Z,92.46
2023-02-13T04:07:07.341Z,92.67
2023-02-13T04:07:39.822Z,93.18
2023-02-13T04:08:12.324Z,92.67
2023-02-13T04:08:44.820Z,92.46
2023-02-13T04:09:17.331Z,92.46
2023-02-13T04:09:49.989Z,92.77
2023-02-13T04:10:22.426Z,93.29
2023-02-13T04:10:55.248Z,92.97
2023-02-13T04:11:27.366Z,92.77
2023-02-13T04:11:59.816Z,93.29
2023-02-13T04:12:32.274Z,93.49
2023-02-13T04:13:04.745Z,93.18
2023-02-13T04:13:37.224Z,92.97
2023-02-13T04:14:09.694Z,92.87
2023-02-13T04:14:42.159Z,92.71
2023-02-13T04:15:14.610Z,92.71
2023-02-13T04:15:47.123Z,92.82
2023-02-13T04:16:19.703Z,93.02
2023-02-13T04:16:52.144Z,93.29
2023-02-13T04:17:24.592Z,93.39
2023-02-13T04:17:57.125Z,93.29
2023-02-13T04:18:29.582Z,93.08
2023-02-13T04:19:02.041Z,93.08
2023-02-13T04:19:34.489Z,93.18
2023-02-13T04:20:06.930Z,93.08
2023-02-13T04:20:39.425Z,92.97
2023-02-13T04:21:11.957Z,92.92
2023-02-13T04:21:44.450Z,92.82
2023-02-13T04:22:16.922Z,92.92
2023-02-13T04:22:49.382Z,93.02
2023-02-13T04:23:21.785Z,93.43
2023-02-13T04:23:54.314Z,93.43
2023-02-13T04:24:26.760Z,93.23
2023-02-13T04:24:59.214Z,93.33
2023-02-13T04:25:31.662Z,93.12
2023-02-13T04:26:04.199Z,93.23
2023-02-13T04:26:36.704Z,93.33
2023-02-13T04:27:09.250Z,93.12
2023-02-13T04:27:41.708Z,93.02
2023-02-13T04:28:14.304Z,93.02
2023-02-13T04:28:46.816Z,92.92
2023-02-13T04:29:19.362Z,92.92
2023-02-13T04:29:52.028Z,93.02
2023-02-13T04:30:24.540Z,93.02
2023-02-13T04:30:57.292Z,93.02
2023-02-13T04:31:29.546Z,93.02
2023-02-13T04:32:01.971Z,93.12
2023-02-13T04:32:34.425Z,93.12
2023-02-13T04:33:06.916Z,93.23
2023-02-13T04:33:39.382Z,93.43
2023-02-13T04:34:11.831Z,93.54
2023-02-13T04:34:44.331Z,93.43
2023-02-13T04:35:16.912Z,93.23
2023-02-13T04:35:49.359Z,93.12
2023-02-13T04:36:21.824Z,93.12
2023-02-13T04:36:54.272Z,93.12
2023-02-13T04:37:26.752Z,93.23
2023-02-13T04:37:59.195Z,93.33
2023-02-13T04:38:31.611Z,93.43
2023-02-13T04:39:04.079Z,93.54
2023-02-13T04:39:36.540Z,93.54
2023-02-13T04:40:08.993Z,93.54
2023-02-13T04:40:41.556Z,93.54
2023-02-13T04:41:14.028Z,93.54
2023-02-13T04:41:46.506Z,93.54
2023-02-13T04:42:18.966Z,93.64
2023-02-13T04:42:51.462Z,93.84
2023-02-13T04:43:23.961Z,93.74
2023-02-13T04:43:56.433Z,93.74
2023-02-13T04:44:28.913Z,93.74
2023-02-13T04:45:01.439Z,93.84
2023-02-13T04:45:33.960Z,93.74
2023-02-13T04:46:06.544Z,94.05
2023-02-13T04:46:38.940Z,94.15
2023-02-13T04:47:11.413Z,94.26
2023-02-13T04:47:43.831Z,94.46
2023-02-13T04:48:16.280Z,94.56
2023-02-13T04:48:48.721Z,94.05
2023-02-13T04:49:21.174Z,93.74
2023-02-13T04:49:53.680Z,93.43
2023-02-13T04:50:26.240Z,93.54
2023-02-13T04:50:58.986Z,93.54
2023-02-13T04:51:31.176Z,93.54
2023-02-13T04:52:03.679Z,93.43
2023-02-13T04:52:36.125Z,93.33
2023-02-13T04:53:08.586Z,93.33
2023-02-13T04:53:41.106Z,93.84
2023-02-13T04:54:13.561Z,93.84
2023-02-13T04:54:46.019Z,94.26
2023-02-13T04:55:18.455Z,94.56
2023-02-13T04:55:50.935Z,94.62
2023-02-13T04:56:23.508Z,94.62
2023-02-13T04:56:55.963Z,94.36
2023-02-13T04:57:28.445Z,93.54
2023-02-13T04:58:00.913Z,93.12
2023-02-13T04:58:33.397Z,93.23
2023-02-13T04:59:05.869Z,93.12
2023-02-13T04:59:38.346Z,93.33
2023-02-13T05:00:10.948Z,93.84
2023-02-13T05:00:43.402Z,94.05
2023-02-13T05:01:15.921Z,94.26
2023-02-13T05:01:48.458Z,93.74
2023-02-13T05:02:20.889Z,94.15
2023-02-13T05:02:53.314Z,93.84
2023-02-13T05:03:25.781Z,93.43
2023-02-13T05:03:58.207Z,93.33
2023-02-13T05:04:30.689Z,93.43
2023-02-13T05:05:03.156Z,94.05
2023-02-13T05:05:35.657Z,94.36
2023-02-13T05:06:08.118Z,94.36
2023-02-13T05:06:40.632Z,93.74
2023-02-13T05:07:13.085Z,93.33
2023-02-13T05:07:45.595Z,93.43
2023-02-13T05:08:18.626Z,93.43
2023-02-13T05:08:51.083Z,93.95
2023-02-13T05:09:23.636Z,94.05
2023-02-13T05:09:56.115Z,93.74
2023-02-13T05:10:28.626Z,93.54
2023-02-13T05:11:01.074Z,93.43
2023-02-13T05:11:33.602Z,93.84
2023-02-13T05:12:06.184Z,93.43
2023-02-13T05:12:38.621Z,93.43
2023-02-13T05:13:11.108Z,93.33
2023-02-13T05:13:43.552Z,93.43
2023-02-13T05:14:16.065Z,93.23
2023-02-13T05:14:48.496Z,93.12
2023-02-13T05:15:20.992Z,93.02
2023-02-13T05:15:55.275Z,93.12
2023-02-13T05:16:35.592Z,93.02
2023-02-13T05:17:08.543Z,93.02
2023-02-13T05:17:41.036Z,93.02
2023-02-13T05:18:13.480Z,93.12
2023-02-13T05:18:46.751Z,93.23
2023-02-13T05:19:19.285Z,93.33
2023-02-13T05:19:51.753Z,93.33
2023-02-13T05:20:24.244Z,93.33
2023-02-13T05:20:56.872Z,93.33
2023-02-13T05:21:29.163Z,93.74
2023-02-13T05:22:01.625Z,93.95
2023-02-13T05:22:34.102Z,93.95
2023-02-13T05:23:06.580Z,93.84
2023-02-13T05:23:39.055Z,94.26
2023-02-13T05:24:11.585Z,94.36
2023-02-13T05:24:44.071Z,94.15
2023-02-13T05:25:16.586Z,93.84
2023-02-13T05:25:49.091Z,93.64
2023-02-13T05:26:21.573Z,93.84
2023-02-13T05:26:54.079Z,93.84
2023-02-13T05:27:26.528Z,93.84
2023-02-13T05:27:59.018Z,93.64
2023-02-13T05:28:31.617Z,93.43
2023-02-13T05:29:04.000Z,93.43
2023-02-13T05:29:36.466Z,93.84
2023-02-13T05:30:09.053Z,93.64
2023-02-13T05:30:41.511Z,93.74
2023-02-13T05:31:14.873Z,93.74
2023-02-13T05:31:47.389Z,93.54
2023-02-13T05:32:19.764Z,93.54
2023-02-13T05:32:52.161Z,93.54
2023-02-13T05:33:24.586Z,93.54
2023-02-13T05:33:57.024Z,93.54
2023-02-13T05:34:29.494Z,93.43
2023-02-13T05:35:04.241Z,93.33
2023-02-13T05:35:35.263Z,93.43
2023-02-13T05:36:07.901Z,93.43
2023-02-13T05:36:40.396Z,93.43
2023-02-13T05:37:12.868Z,93.43
2023-02-13T05:37:45.342Z,94.05
2023-02-13T05:38:17.801Z,93.95
2023-02-13T05:38:50.245Z,93.54
2023-02-13T05:39:22.698Z,93.54
2023-02-13T05:39:55.120Z,93.43
2023-02-13T05:40:27.798Z,93.43
2023-02-13T05:41:00.250Z,93.33
2023-02-13T05:41:32.728Z,93.43
2023-02-13T05:42:05.149Z,93.74
2023-02-13T05:42:37.641Z,94.15
2023-02-13T05:43:10.131Z,94.15
2023-02-13T05:43:42.587Z,94.05
2023-02-13T05:44:15.007Z,94.26
2023-02-13T05:44:47.458Z,94.05
2023-02-13T05:45:19.909Z,93.74
2023-02-13T05:45:52.396Z,93.84
2023-02-13T05:46:24.924Z,94.46
2023-02-13T05:46:57.301Z,94.56
2023-02-13T05:47:29.736Z,94.36
2023-02-13T05:48:02.157Z,94.26
2023-02-13T05:48:34.612Z,93.95
2023-02-13T05:49:07.022Z,93.74
2023-02-13T05:49:39.491Z,93.74
2023-02-13T05:50:11.940Z,93.74
2023-02-13T05:50:44.404Z,93.64
2023-02-13T05:51:16.842Z,93.74
2023-02-13T05:51:49.337Z,93.64
2023-02-13T05:52:21.757Z,93.64
2023-02-13T05:52:54.195Z,93.64
2023-02-13T05:53:26.663Z,94.15
2023-02-13T05:53:59.099Z,94.15
2023-02-13T05:54:31.545Z,93.84
2023-02-13T05:55:03.990Z,93.64
2023-02-13T05:55:36.456Z,93.74
2023-02-13T05:56:08.949Z,93.95
2023-02-13T05:56:41.419Z,93.95
2023-02-13T05:57:13.877Z,93.74
2023-02-13T05:57:46.353Z,93.64
2023-02-13T05:58:18.815Z,93.54
2023-02-13T05:58:51.263Z,93.74
2023-02-13T05:59:24.130Z,93.74
2023-02-13T05:59:56.192Z,93.43
2023-02-13T06:00:28.624Z,93.43
2023-02-13T06:01:01.110Z,93.33
2023-02-13T06:01:33.531Z,93.33
2023-02-13T06:02:06.759Z,93.54
2023-02-13T06:02:39.260Z,93.64
2023-02-13T06:03:11.685Z,93.64
2023-02-13T06:03:44.189Z,93.74
2023-02-13T06:04:16.627Z,93.74
2023-02-13T06:04:49.011Z,93.74
2023-02-13T06:05:21.549Z,93.54
2023-02-13T06:05:54.039Z,93.64
2023-02-13T06:06:26.524Z,93.74
2023-02-13T06:06:58.984Z,93.64
2023-02-13T06:07:31.420Z,93.64
2023-02-13T06:08:03.862Z,93.54
2023-02-13T06:08:36.353Z,93.43
2023-02-13T06:09:08.773Z,93.33
2023-02-13T06:09:41.246Z,93.23
2023-02-13T06:10:13.699Z,93.23
2023-02-13T06:10:46.142Z,93.23
2023-02-13T06:11:18.602Z,93.33
2023-02-13T06:11:51.112Z,93.33
2023-02-13T06:12:23.563Z,93.43
2023-02-13T06:12:56.014Z,93.43
2023-02-13T06:13:28.456Z,93.43
2023-02-13T06:14:00.889Z,93.43
2023-02-13T06:14:33.342Z,93.54
2023-02-13T06:15:05.842Z,93.64
2023-02-13T06:15:38.383Z,93.64
2023-02-13T06:16:10.827Z,93.64
2023-02-13T06:16:43.213Z,93.64
2023-02-13T06:17:15.637Z,93.64
2023-02-13T06:17:48.162Z,93.74
2023-02-13T06:18:20.619Z,93.64
2023-02-13T06:18:53.101Z,93.74
2023-02-13T06:19:25.521Z,93.95
2023-02-13T06:19:57.965Z,93.64
2023-02-13T06:20:30.421Z,93.54
2023-02-13T06:21:03.548Z,93.54
2023-02-13T06:21:36.055Z,93.54
2023-02-13T06:22:08.473Z,93.54
2023-02-13T06:22:41.762Z,93.33
2023-02-13T06:23:14.230Z,93.43
2023-02-13T06:23:46.733Z,93.54
2023-02-13T06:24:20.008Z,93.43
2023-02-13T06:24:52.460Z,93.43
2023-02-13T06:25:24.925Z,93.43
2023-02-13T06:25:57.373Z,93.33
2023-02-13T06:26:29.867Z,93.33
2023-02-13T06:27:02.308Z,93.33
2023-02-13T06:27:34.766Z,93.54
2023-02-13T06:28:07.281Z,93.54
2023-02-13T06:28:39.701Z,93.84
2023-02-13T06:29:12.107Z,93.84
2023-02-13T06:29:44.563Z,93.74
2023-02-13T06:30:17.023Z,93.64
2023-02-13T06:30:49.561Z,93.64
2023-02-13T06:31:22.079Z,93.64
2023-02-13T06:31:54.551Z,93.54
2023-02-13T06:32:26.981Z,93.54
2023-02-13T06:33:00.002Z,93.54
2023-02-13T06:33:32.438Z,93.54
2023-02-13T06:34:04.912Z,94.15
2023-02-13T06:34:37.461Z,93.95
2023-02-13T06:35:09.988Z,93.84
2023-02-13T06:35:42.425Z,93.95
2023-02-13T06:36:14.886Z,94.15
2023-02-13T06:36:47.387Z,94.36
2023-02-13T06:37:19.866Z,94.36
2023-02-13T06:37:52.330Z,94.36
2023-02-13T06:38:24.781Z,94.67
2023-02-13T06:38:57.218Z,94.77
2023-02-13T06:39:29.690Z,94.56
2023-02-13T06:40:02.227Z,94.46
2023-02-13T06:40:34.600Z,94.36
2023-02-13T06:41:07.046Z,94.36
2023-02-13T06:41:39.504Z,94.77
2023-02-13T06:42:11.946Z,94.87
2023-02-13T06:42:44.403Z,94.56
2023-02-13T06:43:16.863Z,94.26
2023-02-13T06:43:49.366Z,94.15
2023-02-13T06:44:21.841Z,94.26
2023-02-13T06:44:54.300Z,94.26
2023-02-13T06:45:26.778Z,94.15
2023-02-13T06:45:59.201Z,93.84
2023-02-13T06:46:31.712Z,93.64
2023-02-13T06:47:04.072Z,93.64
2023-02-13T06:47:36.551Z,93.54
2023-02-13T06:48:08.994Z,93.54
2023-02-13T06:48:41.517Z,93.54
2023-02-13T06:49:13.929Z,93.54
2023-02-13T06:49:46.430Z,93.64
2023-02-13T06:50:19.538Z,93.64
2023-02-13T06:50:51.925Z,93.74
2023-02-13T06:51:24.377Z,93.84
2023-02-13T06:51:56.816Z,93.95
2023-02-13T06:52:29.288Z,93.84
2023-02-13T06:53:01.753Z,93.64
2023-02-13T06:53:34.227Z,93.43
2023-02-13T06:54:06.668Z,93.43
2023-02-13T06:54:47.418Z,93.43
2023-02-13T06:55:11.556Z,93.54
2023-02-13T06:55:44.013Z,93.54
2023-02-13T06:56:16.509Z,93.64
2023-02-13T06:56:48.979Z,93.54
2023-02-13T06:57:21.390Z,93.43
2023-02-13T06:57:53.865Z,93.54
2023-02-13T06:58:26.324Z,93.54
2023-02-13T06:58:58.781Z,93.64